Time;durP1;ratioP1;P1;durP2;ratioP2;P2;SDS_P1;SDS_P2;PMS_P1;PMS_P2;Temp;Humidity;BMP_temperature;BMP_pressure;BME280_temperature;BME280_humidity;BME280_pressure;Samples;Min_cycle;Max_cycle;Signal;HPM_P1;HPM_P2
2023/07/12 00:02:07;;;;;;;1.30;1.10;;;;;;;22.02;61.11;96311.13;10326705;28;20046;-32
2023/07/12 00:07:12;;;;;;;1.45;1.30;;;;;;;21.99;60.88;96342.59;10321139;28;20065;-31
2023/07/12 00:12:13;;;;;;;1.73;1.40;;;;;;;22.13;62.45;96396.72;10326803;28;20048;-32
2023/07/12 00:17:15;;;;;;;1.60;1.40;;;;;;;22.33;61.52;96417.56;10326376;28;20564;-32
2023/07/12 00:22:18;;;;;;;1.55;1.20;;;;;;;22.32;61.18;96423.53;10326006;28;20114;-32
2023/07/12 00:27:18;;;;;;;1.40;1.23;;;;;;;22.19;61.29;96411.91;10327165;28;20121;-33
2023/07/12 00:32:18;;;;;;;2.13;1.30;;;;;;;22.08;60.83;96407.88;10333002;28;20392;-32
2023/07/12 00:37:19;;;;;;;1.40;1.30;;;;;;;22.08;60.76;96398.50;10332741;28;20444;-31
2023/07/12 00:42:27;;;;;;;3.63;1.20;;;;;;;22.03;60.61;96385.03;10333047;28;20416;-32
2023/07/12 00:47:32;;;;;;;2.30;1.20;;;;;;;22.02;60.52;96382.50;10333239;28;20038;-32
2023/07/12 00:52:33;;;;;;;1.33;1.20;;;;;;;21.98;60.60;96355.41;10333149;28;20034;-32
2023/07/12 00:57:33;;;;;;;1.42;1.17;;;;;;;21.99;60.43;96363.00;10331501;28;20026;-32
2023/07/12 01:02:33;;;;;;;1.40;1.10;;;;;;;22.25;61.52;96365.91;10333500;28;20030;-33
2023/07/12 01:07:34;;;;;;;1.20;1.10;;;;;;;22.37;60.80;96370.72;10330158;28;20412;-32
2023/07/12 01:12:34;;;;;;;1.77;1.38;;;;;;;22.22;61.11;96360.84;10332154;28;20500;-32
2023/07/12 01:17:36;;;;;;;1.52;1.30;;;;;;;22.14;61.14;96362.69;10331363;28;20038;-32
2023/07/12 01:22:36;;;;;;;2.05;1.45;;;;;;;22.06;61.03;96362.00;10330273;28;20069;-33
2023/07/12 01:27:37;;;;;;;1.17;1.05;;;;;;;22.05;60.74;96352.69;10333239;28;20034;-32
2023/07/12 01:32:41;;;;;;;1.05;0.95;;;;;;;22.02;60.58;96351.91;10331124;28;20041;-32
2023/07/12 01:37:44;;;;;;;1.73;1.08;;;;;;;22.04;60.14;96343.34;10346871;28;20409;-32
2023/07/12 01:42:44;;;;;;;1.97;1.20;;;;;;;22.00;60.32;96348.56;10320170;28;20031;-33
2023/07/12 01:47:45;;;;;;;3.08;1.30;;;;;;;22.09;61.49;96343.25;10331466;28;20045;-31
2023/07/12 01:52:45;;;;;;;1.10;1.00;;;;;;;22.35;60.88;96318.91;10328174;28;20030;-32
2023/07/12 01:57:45;;;;;;;1.53;0.87;;;;;;;22.33;60.49;96302.78;10330455;28;20629;-33
2023/07/12 02:02:46;;;;;;;1.57;1.00;;;;;;;22.21;61.23;96297.94;10329143;28;20042;-32
2023/07/12 02:07:48;;;;;;;4.80;2.00;;;;;;;22.14;60.67;96327.00;10326164;28;20033;-32
2023/07/12 02:12:49;;;;;;;2.00;1.27;;;;;;;22.08;60.38;96318.66;10328320;28;20033;-31
2023/07/12 02:17:50;;;;;;;2.77;1.20;;;;;;;22.09;60.57;96333.06;10328694;28;20394;-32
2023/07/12 02:22:50;;;;;;;1.97;1.20;;;;;;;22.04;60.50;96340.81;10328345;28;20038;-32
2023/07/12 02:27:51;;;;;;;2.85;0.90;;;;;;;22.04;60.39;96332.31;10328363;28;20297;-32
2023/07/12 02:32:52;;;;;;;1.33;1.23;;;;;;;22.04;60.18;96329.75;10322524;28;20030;-33
2023/07/12 02:37:54;;;;;;;3.15;1.33;;;;;;;22.24;61.13;96291.97;10328455;28;20134;-32
2023/07/12 02:42:55;;;;;;;1.45;1.13;;;;;;;22.39;60.99;96312.84;10327580;28;20088;-33
2023/07/12 02:47:56;;;;;;;1.33;0.90;;;;;;;22.29;60.83;96310.53;10330227;28;20092;-33
2023/07/12 02:52:56;;;;;;;1.23;1.10;;;;;;;22.17;60.76;96315.91;10327323;28;20038;-32
2023/07/12 02:57:56;;;;;;;1.93;1.60;;;;;;;22.12;60.71;96313.44;10329757;28;20045;-33
2023/07/12 03:02:58;;;;;;;2.20;1.10;;;;;;;22.10;60.37;96327.94;10327159;28;20034;-32
2023/07/12 03:07:58;;;;;;;1.42;1.10;;;;;;;22.14;60.88;96336.38;10328353;28;20065;-32
2023/07/12 03:12:58;;;;;;;4.30;1.80;;;;;;;22.08;60.38;96327.13;10321792;28;20467;-33
2023/07/12 03:17:59;;;;;;;5.50;1.83;;;;;;;22.03;60.50;96318.75;10325010;28;20539;-31
2023/07/12 03:22:59;;;;;;;3.33;2.03;;;;;;;22.06;61.67;96361.19;10328015;28;20509;-31
2023/07/12 03:28:00;;;;;;;1.88;1.52;;;;;;;22.29;61.57;96359.84;10327177;28;20398;-32
2023/07/12 03:33:01;;;;;;;1.33;1.10;;;;;;;22.38;60.20;96369.00;10326150;28;20026;-33
2023/07/12 03:38:01;;;;;;;2.17;1.20;;;;;;;22.20;61.07;96375.34;10326576;28;20692;-33
2023/07/12 03:43:01;;;;;;;4.03;1.60;;;;;;;22.15;60.82;96377.13;10271523;28;20513;-32
2023/07/12 03:48:02;;;;;;;5.17;3.40;;;;;;;22.60;70.68;96376.22;10277981;28;22577;-32
2023/07/12 03:53:02;;;;;;;6.65;3.40;;;;;;;22.50;69.26;96387.47;10279297;28;20034;-31
2023/07/12 03:58:03;;;;;;;7.67;4.10;;;;;;;22.53;71.45;96400.19;10283301;28;20087;-32
2023/07/12 04:03:03;;;;;;;6.03;3.90;;;;;;;22.66;72.24;96414.34;10298800;28;20412;-31
2023/07/12 04:08:04;;;;;;;5.67;4.03;;;;;;;22.66;72.09;96424.56;10298216;28;20112;-32
2023/07/12 04:13:05;;;;;;;9.98;4.97;;;;;;;22.53;73.06;96420.59;10297514;28;20374;-33
2023/07/12 04:18:05;;;;;;;8.95;4.57;;;;;;;22.70;72.84;96436.41;10322026;28;20050;-32
2023/07/12 04:23:06;;;;;;;9.43;4.53;;;;;;;22.67;72.97;96436.47;10326540;28;20066;-32
2023/07/12 04:28:06;;;;;;;7.57;3.92;;;;;;;22.63;73.73;96449.28;10333645;28;20496;-33
2023/07/12 04:33:07;;;;;;;7.63;4.70;;;;;;;22.55;74.03;96452.03;10331974;28;20030;-31
2023/07/12 04:38:07;;;;;;;6.87;4.37;;;;;;;22.49;73.90;96452.13;10333429;28;20038;-32
2023/07/12 04:43:07;;;;;;;6.17;4.30;;;;;;;22.50;74.18;96465.75;10332975;28;20038;-33
2023/07/12 04:48:09;;;;;;;7.30;4.37;;;;;;;22.56;74.57;96468.19;10332184;28;20404;-32
2023/07/12 04:53:09;;;;;;;7.85;4.55;;;;;;;22.38;71.37;96461.69;10332960;28;20069;-32
2023/07/12 04:58:10;;;;;;;9.57;5.20;;;;;;;22.59;74.36;96448.56;10332513;28;20065;-32
2023/07/12 05:03:12;;;;;;;11.07;5.80;;;;;;;22.60;74.19;96460.44;10332894;28;20448;-32
2023/07/12 05:08:13;;;;;;;10.75;5.10;;;;;;;22.62;74.32;96466.34;10332171;28;20026;-32
2023/07/12 05:13:13;;;;;;;7.63;4.30;;;;;;;22.52;73.34;96462.31;10330356;28;20033;-32
2023/07/12 05:18:14;;;;;;;8.18;5.50;;;;;;;22.45;74.97;96476.03;10330733;28;20042;-33
2023/07/12 05:23:14;;;;;;;20.80;4.87;;;;;;;22.32;70.54;96464.34;10331495;28;20041;-35
2023/07/12 05:28:14;;;;;;;8.82;4.40;;;;;;;22.27;69.08;96460.19;10330851;28;20041;-31
2023/07/12 05:33:15;;;;;;;10.40;4.57;;;;;;;22.22;67.84;96452.63;10331364;28;20046;-33
2023/07/12 05:38:16;;;;;;;10.77;4.32;;;;;;;22.18;66.20;96448.47;10330661;28;20209;-32
2023/07/12 05:43:22;;;;;;;5.70;4.95;;;;;;;22.16;65.84;96452.75;10330881;28;20042;-34
2023/07/12 05:48:24;;;;;;;7.63;4.25;;;;;;;22.16;66.07;96460.41;10330646;28;20496;-33
2023/07/12 05:53:24;;;;;;;8.13;3.65;;;;;;;22.37;67.55;96457.47;10330617;28;20038;-32
2023/07/12 05:58:25;;;;;;;8.00;2.78;;;;;;;22.43;66.01;96447.16;10331410;28;20097;-32
2023/07/12 06:03:27;;;;;;;6.70;2.70;;;;;;;22.28;66.49;96447.44;10330451;28;20033;-32
2023/07/12 06:08:27;;;;;;;9.52;4.35;;;;;;;22.23;66.67;96444.13;10326329;28;20069;-32
2023/07/12 06:13:28;;;;;;;8.77;4.82;;;;;;;22.21;65.94;96440.75;10326124;28;20117;-32
2023/07/12 06:18:31;;;;;;;8.43;4.78;;;;;;;22.21;66.39;96440.75;10327201;28;20022;-33
2023/07/12 06:23:32;;;;;;;10.48;4.28;;;;;;;22.18;64.61;96435.72;10330235;28;20060;-32
2023/07/12 06:28:33;;;;;;;10.48;4.57;;;;;;;22.16;64.42;96440.00;10329099;28;20441;-31
2023/07/12 06:33:34;;;;;;;5.68;3.97;;;;;;;22.12;63.62;96435.84;10329563;28;20038;-32
2023/07/12 06:38:34;;;;;;;4.35;3.15;;;;;;;22.23;66.67;96433.09;10327775;28;20030;-32
2023/07/12 06:43:34;;;;;;;3.88;2.75;;;;;;;22.43;65.56;96425.91;10328807;28;20065;-33
2023/07/12 06:48:35;;;;;;;8.40;2.43;;;;;;;22.32;64.29;96423.53;10329192;28;20324;-32
2023/07/12 06:53:35;;;;;;;3.33;2.07;;;;;;;22.22;64.60;96432.25;10328527;28;20286;-32
2023/07/12 06:58:36;;;;;;;7.25;3.97;;;;;;;22.22;65.23;96437.34;10328568;28;20493;-33
2023/07/12 07:03:37;;;;;;;6.03;4.67;;;;;;;22.19;64.50;96447.59;10328017;28;20556;-32
2023/07/12 07:08:37;;;;;;;5.47;4.47;;;;;;;22.16;63.76;96449.38;10327866;28;20647;-32
2023/07/12 07:13:37;;;;;;;7.30;5.70;;;;;;;22.15;64.22;96452.78;10327432;28;20030;-32
2023/07/12 07:18:38;;;;;;;9.47;4.77;;;;;;;22.13;63.27;96447.72;10327231;28;20041;-32
2023/07/12 07:23:38;;;;;;;7.63;5.23;;;;;;;22.12;63.36;96456.25;10327722;28;20064;-31
2023/07/12 07:28:40;;;;;;;3.37;2.50;;;;;;;22.32;64.75;96468.63;10327261;28;20037;-32
2023/07/12 07:33:41;;;;;;;3.30;2.38;;;;;;;22.43;63.58;96480.34;10327558;28;20026;-32
2023/07/12 07:38:41;;;;;;;2.47;2.27;;;;;;;22.31;64.24;96479.69;10326620;28;20030;-32
2023/07/12 07:43:44;;;;;;;3.00;2.10;;;;;;;22.21;63.69;96491.78;10326983;28;20038;-33
2023/07/12 07:48:45;;;;;;;6.88;3.85;;;;;;;22.18;64.08;96489.28;10325089;28;20491;-33
2023/07/12 07:53:46;;;;;;;6.78;3.72;;;;;;;22.16;63.11;96497.81;10326834;28;20029;-33
2023/07/12 07:58:48;;;;;;;8.48;4.35;;;;;;;22.14;63.11;96490.19;10326849;28;20042;-32
2023/07/12 08:03:49;;;;;;;7.05;3.80;;;;;;;22.11;63.05;96510.66;10323153;28;20093;-32
2023/07/12 08:08:49;;;;;;;6.17;3.80;;;;;;;22.13;63.33;96503.81;10326523;28;20460;-33
2023/07/12 08:13:50;;;;;;;6.03;3.77;;;;;;;22.16;64.90;96513.13;10322735;28;20041;-32
2023/07/12 08:18:50;;;;;;;3.00;2.20;;;;;;;22.35;63.61;96515.31;10325612;28;20489;-32
2023/07/12 08:23:50;;;;;;;2.10;1.90;;;;;;;22.39;62.30;96514.38;10325589;28;20034;-32
2023/07/12 08:28:51;;;;;;;3.63;2.50;;;;;;;22.25;63.26;96512.97;10325780;28;20026;-32
2023/07/12 08:33:53;;;;;;;6.00;2.97;;;;;;;22.19;62.79;96529.22;10327054;28;20041;-33
2023/07/12 08:38:53;;;;;;;4.55;2.83;;;;;;;22.17;63.01;96530.97;10325705;28;20088;-32
2023/07/12 08:43:53;;;;;;;5.10;3.47;;;;;;;22.15;62.88;96537.78;10326672;28;20076;-32
2023/07/12 08:48:58;;;;;;;9.82;3.83;;;;;;;22.14;62.82;96537.81;10325916;28;20045;-32
2023/07/12 08:53:59;;;;;;;8.38;3.83;;;;;;;22.12;62.16;96535.28;10332915;28;20137;-33
2023/07/12 08:59:01;;;;;;;6.17;4.27;;;;;;;22.17;63.10;96530.09;10333422;28;20117;-32
2023/07/12 09:04:26;;;;;;;2.97;2.30;;;;;;;22.25;63.60;96529.13;10332610;28;20092;-31
2023/07/12 09:09:27;;;;;;;2.60;2.00;;;;;;;22.43;63.05;96530.50;10332821;28;20030;-32
2023/07/12 09:14:28;;;;;;;3.03;2.60;;;;;;;22.34;62.59;96521.28;10330368;28;20054;-32
2023/07/12 09:19:37;;;;;;;4.47;2.70;;;;;;;22.21;62.46;96522.38;10332512;28;20050;-32
2023/07/12 09:24:43;;;;;;;2.97;2.38;;;;;;;22.17;62.29;96520.75;10331884;28;20038;-31
2023/07/12 09:29:44;;;;;;;3.25;2.95;;;;;;;22.15;61.98;96517.38;10332129;28;20161;-32
2023/07/12 09:34:47;;;;;;;4.68;2.40;;;;;;;22.11;62.13;96518.31;10331616;28;20045;-33
2023/07/12 09:39:58;;;;;;;6.90;3.00;;;;;;;22.12;61.89;96514.88;10331103;28;20118;-32
2023/07/12 09:44:59;;;;;;;5.43;2.78;;;;;;;22.11;62.29;96508.09;10331934;28;20252;-32
2023/07/12 09:50:35;;;;;;;6.32;2.80;;;;;;;22.16;64.41;96513.94;10330873;28;20453;-32
2023/07/12 09:55:57;;;;;;;2.05;1.83;;;;;;;22.38;62.49;96517.81;10343648;28;20421;-33
2023/07/12 10:01:05;;;;;;;2.47;1.75;;;;;;;22.41;61.68;96515.22;10325724;28;20061;-33
2023/07/12 10:06:20;;;;;;;2.83;2.05;;;;;;;22.26;62.79;96510.41;10331017;28;20038;-32
2023/07/12 10:11:32;;;;;;;4.00;2.80;;;;;;;22.17;62.04;96510.56;10330225;28;20041;-32
2023/07/12 10:16:39;;;;;;;7.35;2.40;;;;;;;22.16;61.83;96508.84;10321900;28;20416;-32
2023/07/12 10:21:40;;;;;;;6.28;2.30;;;;;;;22.14;62.99;96504.66;10330447;28;20074;-32
2023/07/12 10:26:43;;;;;;;5.63;2.13;;;;;;;22.09;61.74;96497.09;10322833;28;20097;-32
2023/07/12 10:31:55;;;;;;;4.03;3.08;;;;;;;22.09;61.56;96492.00;10329442;28;20032;-31
2023/07/12 10:37:00;;;;;;;3.42;1.60;;;;;;;22.25;62.42;96497.66;10329088;28;20412;-33
2023/07/12 10:42:11;;;;;;;5.32;1.85;;;;;;;22.45;61.94;96501.56;10328009;28;20093;-32
2023/07/12 10:47:16;;;;;;;3.50;1.98;;;;;;;22.34;62.01;96483.03;10328957;28;20049;-32
2023/07/12 10:52:32;;;;;;;3.70;2.13;;;;;;;22.22;61.93;96467.94;10328755;28;20080;-32
2023/07/12 10:57:44;;;;;;;;;;;;;;;22.20;61.81;96469.69;10328759;28;20034;-32
2023/07/12 11:02:59;;;;;;;4.57;2.35;;;;;;;22.16;62.00;96462.94;10327941;28;19964;-32
2023/07/12 11:08:02;;;;;;;5.82;2.70;;;;;;;22.13;61.44;96464.75;10327666;28;20061;-33
2023/07/12 11:13:15;;;;;;;5.55;3.00;;;;;;;22.10;61.38;96470.72;10326018;28;20073;-32
2023/07/12 11:18:24;;;;;;;3.97;2.35;;;;;;;22.09;61.23;96465.66;10327964;28;20134;-32
2023/07/12 11:23:38;;;;;;;3.35;2.53;;;;;;;22.18;62.61;96468.88;10326990;28;20038;-32
2023/07/12 11:28:41;;;;;;;3.28;2.13;;;;;;;22.42;62.54;96471.00;10327802;28;20108;-34
2023/07/12 11:34:03;;;;;;;3.10;2.10;;;;;;;22.40;61.63;96471.88;10326959;28;20061;-32
2023/07/12 11:39:14;;;;;;;6.05;2.70;;;;;;;22.27;62.05;96480.59;10326786;28;20413;-32
2023/07/12 11:44:15;;;;;;;10.45;3.65;;;;;;;22.17;61.87;96479.97;10327613;28;20185;-33
2023/07/12 11:49:17;;;;;;;8.35;4.10;;;;;;;22.17;61.63;96482.50;10322017;28;20026;-32
2023/07/12 11:54:23;;;;;;;10.07;4.50;;;;;;;22.16;61.55;96483.34;10326915;28;20156;-33
2023/07/12 11:59:27;;;;;;;7.10;2.75;;;;;;;22.14;61.52;96485.09;10323282;28;20074;-33
2023/07/12 12:04:33;;;;;;;9.00;4.60;;;;;;;22.21;66.58;96481.56;10326895;28;20034;-32
2023/07/12 12:09:36;;;;;;;6.80;4.05;;;;;;;22.23;63.05;96474.72;10318602;28;20469;-33
2023/07/12 12:14:40;;;;;;;8.15;2.90;;;;;;;22.44;62.45;96479.47;10325278;28;20046;-33
2023/07/12 12:19:40;;;;;;;3.65;2.35;;;;;;;22.50;61.96;96478.50;10325982;28;20490;-32
2023/07/12 12:24:46;;;;;;;7.37;3.30;;;;;;;22.48;67.66;96491.28;10328574;28;20080;-33
2023/07/12 12:29:49;;;;;;;7.30;3.78;;;;;;;22.42;63.80;96483.75;10333734;28;20146;-33
2023/07/12 12:34:54;;;;;;;7.07;3.55;;;;;;;22.32;62.68;96476.28;10332845;28;20031;-32
2023/07/12 12:39:58;;;;;;;12.65;3.65;;;;;;;22.24;62.23;96481.50;10333995;28;20105;-32
2023/07/12 12:44:59;;;;;;;8.18;3.28;;;;;;;22.21;61.66;96481.56;10333516;28;20050;-33
2023/07/12 12:49:59;;;;;;;4.32;2.83;;;;;;;22.17;61.55;96468.91;10333876;28;20162;-33
2023/07/12 12:55:03;;;;;;;6.25;3.03;;;;;;;22.15;61.41;96468.91;10333538;28;20045;-32
2023/07/12 13:00:12;;;;;;;4.20;2.80;;;;;;;22.27;63.45;96461.06;10332800;28;20489;-32
2023/07/12 13:05:16;;;;;;;3.72;2.50;;;;;;;22.47;62.06;96458.97;10333066;28;20432;-32
2023/07/12 13:10:20;;;;;;;2.50;2.30;;;;;;;22.44;61.89;96463.31;10324429;28;20042;-32
2023/07/12 13:15:22;;;;;;;4.25;2.20;;;;;;;22.29;61.80;96466.09;10332939;28;20444;-32
2023/07/12 13:20:25;;;;;;;4.95;2.55;;;;;;;22.23;61.65;96459.41;10331722;28;20073;-32
2023/07/12 13:25:25;;;;;;;4.85;2.55;;;;;;;22.21;61.59;96463.72;10325816;28;20113;-32
2023/07/12 13:30:28;;;;;;;4.00;3.00;;;;;;;22.17;61.18;96464.66;10332440;28;20117;-32
2023/07/12 13:35:29;;;;;;;4.35;2.30;;;;;;;22.16;61.55;96452.75;10330978;28;20297;-32
2023/07/12 13:40:29;;;;;;;3.25;2.80;;;;;;;22.15;61.40;96451.06;10325526;28;20050;-32
2023/07/12 13:45:31;;;;;;;3.97;2.50;;;;;;;22.13;61.35;96434.97;10330902;28;20038;-32
2023/07/12 13:50:32;;;;;;;3.50;1.90;;;;;;;22.36;62.42;96432.81;10331442;28;20049;-33
2023/07/12 13:55:32;;;;;;;4.40;2.53;;;;;;;22.49;61.47;96431.72;10330751;28;20121;-33
2023/07/12 14:00:32;;;;;;;3.23;2.27;;;;;;;22.38;61.65;96438.72;10330488;28;20412;-32
2023/07/12 14:05:33;;;;;;;4.00;2.83;;;;;;;22.25;61.98;96439.00;10331137;28;20062;-32
2023/07/12 14:10:33;;;;;;;5.37;2.30;;;;;;;22.24;62.31;96448.34;10329902;28;20038;-32
2023/07/12 14:15:33;;;;;;;3.53;2.63;;;;;;;22.17;61.45;96449.34;10330438;28;20085;-33
2023/07/12 14:20:34;;;;;;;3.60;2.50;;;;;;;22.18;61.33;96455.28;10329340;28;20034;-33
2023/07/12 14:25:37;;;;;;;6.93;2.40;;;;;;;22.16;61.29;96437.44;10330138;28;20048;-32
2023/07/12 14:30:37;;;;;;;6.35;4.25;;;;;;;22.95;63.77;96440.09;10329260;28;20035;-33
2023/07/12 14:35:37;;;;;;;6.33;3.37;;;;;;;22.54;64.15;96426.53;10328795;28;20038;-32
2023/07/12 14:40:40;;;;;;;4.00;2.37;;;;;;;22.63;62.08;96426.34;10329372;28;20090;-32
2023/07/12 14:45:42;;;;;;;3.42;2.30;;;;;;;22.58;61.19;96423.88;10328799;28;20030;-33
2023/07/12 14:50:42;;;;;;;4.13;2.50;;;;;;;22.40;62.36;96421.66;10328738;28;20113;-33
2023/07/12 14:55:43;;;;;;;3.13;2.83;;;;;;;22.32;62.07;96433.75;10328185;28;20113;-32
2023/07/12 15:00:43;;;;;;;4.73;3.37;;;;;;;22.27;62.28;96440.66;10328207;28;20612;-33
2023/07/12 15:05:44;;;;;;;4.47;2.87;;;;;;;22.26;61.92;96455.97;10328082;28;20033;-33
2023/07/12 15:10:44;;;;;;;2.67;2.03;;;;;;;22.22;61.54;96456.91;10323292;28;20022;-33
2023/07/12 15:15:44;;;;;;;3.90;2.97;;;;;;;22.20;61.32;96469.69;10324258;28;20044;-33
2023/07/12 15:20:51;;;;;;;3.63;2.40;;;;;;;22.18;61.24;96471.44;10323005;28;20401;-32
2023/07/12 15:25:51;;;;;;;2.22;1.95;;;;;;;22.29;62.62;96464.41;10324708;28;20454;-32
2023/07/12 15:30:52;;;;;;;2.47;2.28;;;;;;;22.50;61.52;96458.91;10324453;28;20069;-33
2023/07/12 15:35:57;;;;;;;3.07;2.07;;;;;;;22.44;61.08;96448.00;10322104;28;20047;-33
2023/07/12 15:41:04;;;;;;;3.75;2.17;;;;;;;22.31;61.50;96449.91;10326040;28;20688;-32
2023/07/12 15:46:09;;;;;;;3.45;2.50;;;;;;;22.24;61.31;96445.78;10327188;28;20070;-33
2023/07/12 15:51:20;;;;;;;5.77;1.80;;;;;;;22.21;61.49;96458.63;10326352;28;20496;-33
2023/07/12 15:56:35;;;;;;;5.65;2.25;;;;;;;22.20;61.29;96462.03;10326594;28;20041;-33
2023/07/12 16:01:35;;;;;;;4.47;3.00;;;;;;;22.18;61.29;96466.34;10328741;28;20045;-33
2023/07/12 16:06:36;;;;;;;6.40;2.42;;;;;;;22.17;61.08;96472.31;10333881;28;20042;-32
2023/07/12 16:11:42;;;;;;;5.80;2.90;;;;;;;22.17;61.19;96474.84;10334019;28;20046;-33
2023/07/12 16:16:43;;;;;;;4.43;2.38;;;;;;;22.44;61.90;96455.66;10334059;28;20297;-32
2023/07/12 16:21:43;;;;;;;2.67;1.87;;;;;;;22.57;61.20;96460.47;10334864;28;20038;-33
2023/07/12 16:26:44;;;;;;;5.65;3.28;;;;;;;22.50;63.67;96450.44;10334576;28;20034;-32
2023/07/12 16:31:52;;;;;;;5.07;3.22;;;;;;;22.44;64.25;96464.16;10332892;28;20030;-34
2023/07/12 16:36:54;;;;;;;11.85;3.53;;;;;;;22.49;61.43;96470.00;10334999;28;20054;-33
2023/07/12 16:41:55;;;;;;;3.78;2.22;;;;;;;22.48;61.37;96470.03;10334178;28;20037;-33
2023/07/12 16:46:57;;;;;;;11.80;3.10;;;;;;;22.55;62.33;96476.72;10334791;28;20036;-33
2023/07/12 16:52:00;;;;;;;3.78;2.88;;;;;;;22.37;61.18;96467.66;10333956;28;20085;-33
2023/07/12 16:57:00;;;;;;;6.55;3.00;;;;;;;22.32;61.02;96481.38;10333809;28;20045;-33
2023/07/12 17:02:02;;;;;;;5.57;3.25;;;;;;;22.45;63.45;96481.16;10333479;28;20125;-33
2023/07/12 17:07:04;;;;;;;4.80;3.35;;;;;;;22.75;64.10;96472.03;10332337;28;20077;-32
2023/07/12 17:12:15;;;;;;;8.77;3.42;;;;;;;22.99;63.32;96453.66;10332265;28;20037;-33
2023/07/12 17:17:15;;;;;;;5.80;3.05;;;;;;;22.99;61.58;96446.81;10330762;28;20489;-36
2023/07/12 17:22:18;;;;;;;3.78;2.20;;;;;;;22.76;61.78;96440.53;10331846;28;20057;-32
2023/07/12 17:27:22;;;;;;;6.20;3.13;;;;;;;22.93;61.57;96452.06;10331918;28;20053;-33
2023/07/12 17:32:30;;;;;;;5.45;2.70;;;;;;;22.99;60.13;96454.47;10330628;28;20069;-33
2023/07/12 17:37:31;;;;;;;3.67;2.63;;;;;;;22.85;60.42;96468.41;10326991;28;20042;-33
2023/07/12 17:42:33;;;;;;;4.07;2.85;;;;;;;22.77;60.38;96471.13;10330944;28;20458;-33
2023/07/12 17:47:33;;;;;;;3.05;2.47;;;;;;;22.64;60.84;96467.13;10325536;28;20038;-33
2023/07/12 17:52:34;;;;;;;6.13;2.97;;;;;;;22.70;61.62;96458.50;10331144;28;20392;-34
2023/07/12 17:57:34;;;;;;;5.07;2.47;;;;;;;22.80;60.99;96460.84;10326268;28;20038;-33
2023/07/12 18:02:35;;;;;;;8.33;2.33;;;;;;;22.71;60.88;96460.19;10326004;28;20034;-34
2023/07/12 18:07:35;;;;;;;4.60;2.55;;;;;;;22.75;60.43;96465.19;10325094;28;20044;-32
2023/07/12 18:12:37;;;;;;;6.15;2.95;;;;;;;22.71;61.27;96463.59;10324035;28;20089;-31
2023/07/12 18:17:37;;;;;;;6.15;2.65;;;;;;;23.01;59.79;96457.84;10325674;28;20092;-33
2023/07/12 18:22:38;;;;;;;4.17;2.90;;;;;;;22.85;60.35;96465.84;10324091;28;20053;-33
2023/07/12 18:27:40;;;;;;;5.30;2.45;;;;;;;22.75;60.24;96469.47;10325830;28;20037;-33
2023/07/12 18:32:41;;;;;;;5.18;2.85;;;;;;;23.03;59.56;96491.84;10320473;28;20045;-33
2023/07/12 18:37:41;;;;;;;3.87;2.60;;;;;;;22.99;59.65;96503.00;10328219;28;20052;-32
2023/07/12 18:42:41;;;;;;;4.63;2.27;;;;;;;23.06;59.12;96507.09;10318396;28;20819;-33
2023/07/12 18:47:42;;;;;;;3.13;2.00;;;;;;;23.03;58.64;96504.63;10324442;28;20038;-33
2023/07/12 18:52:42;;;;;;;3.73;2.53;;;;;;;22.92;59.44;96510.81;10325256;28;20285;-34
2023/07/12 18:57:43;;;;;;;5.33;1.83;;;;;;;22.96;58.94;96513.28;10317499;28;20034;-37
2023/07/12 19:02:43;;;;;;;4.13;1.98;;;;;;;22.87;59.17;96516.03;10324553;28;20042;-33
2023/07/12 19:07:44;;;;;;;5.68;2.33;;;;;;;22.87;59.47;96515.16;10324624;28;20374;-33
2023/07/12 19:12:45;;;;;;;2.43;1.70;;;;;;;22.78;59.53;96512.81;10322293;28;20501;-33
2023/07/12 19:17:46;;;;;;;3.10;2.05;;;;;;;22.97;58.86;96522.63;10320335;28;20046;-33
2023/07/12 19:22:48;;;;;;;5.72;2.10;;;;;;;22.98;58.87;96519.19;10320305;28;20042;-33
2023/07/12 19:27:49;;;;;;;5.72;2.42;;;;;;;22.99;58.64;96518.31;10303488;28;20532;-33
2023/07/12 19:32:50;;;;;;;4.60;1.98;;;;;;;22.75;59.45;96511.16;10321941;28;20042;-33
2023/07/12 19:37:52;;;;;;;2.40;1.70;;;;;;;22.57;59.86;96514.06;10320172;28;20517;-33
2023/07/12 19:42:52;;;;;;;2.15;1.60;;;;;;;22.47;60.21;96527.88;10322784;28;20070;-34
2023/07/12 19:47:53;;;;;;;2.80;1.73;;;;;;;22.42;60.00;96532.22;10323261;28;20042;-35
2023/07/12 19:52:54;;;;;;;2.88;1.75;;;;;;;22.38;60.19;96545.00;10322938;28;20295;-32
2023/07/12 19:57:55;;;;;;;2.35;1.70;;;;;;;22.51;59.88;96557.56;10322870;28;20511;-32
2023/07/12 20:02:56;;;;;;;2.80;1.80;;;;;;;22.69;59.47;96562.34;10322111;28;20038;-32
2023/07/12 20:07:57;;;;;;;4.00;1.70;;;;;;;22.62;59.56;96555.66;10318427;28;20041;-33
2023/07/12 20:12:58;;;;;;;3.67;1.80;;;;;;;22.48;60.00;96555.06;10320158;28;20599;-32
2023/07/12 20:17:59;;;;;;;1.48;1.33;;;;;;;22.39;60.09;96547.53;10322012;28;20045;-32
2023/07/12 20:23:00;;;;;;;2.95;1.60;;;;;;;22.35;59.91;96534.88;10321998;28;20417;-32
2023/07/12 20:28:03;;;;;;;2.45;1.50;;;;;;;22.32;60.37;96530.66;10316347;28;20466;-32
2023/07/12 20:33:04;;;;;;;2.53;1.55;;;;;;;22.31;60.05;96523.88;10326069;28;20046;-33
2023/07/12 20:38:05;;;;;;;2.27;1.57;;;;;;;22.27;60.08;96516.31;10325087;28;20034;-33
2023/07/12 20:43:06;;;;;;;2.13;1.52;;;;;;;22.39;60.49;96522.03;10324557;28;20535;-34
2023/07/12 20:48:12;;;;;;;2.25;1.63;;;;;;;22.58;59.82;96523.41;10330694;28;20057;-32
2023/07/12 20:53:12;;;;;;;3.83;1.20;;;;;;;22.60;59.38;96544.66;10330743;28;20405;-32
2023/07/12 20:58:13;;;;;;;2.50;1.57;;;;;;;22.43;59.89;96551.78;10330802;28;20026;-31
2023/07/12 21:03:17;;;;;;;2.47;1.65;;;;;;;22.37;59.97;96544.19;10332159;28;20034;-33
2023/07/12 21:08:17;;;;;;;1.63;1.33;;;;;;;22.35;59.87;96555.28;10332881;28;20069;-33
2023/07/12 21:13:17;;;;;;;2.27;1.60;;;;;;;22.31;60.02;96589.38;10330616;28;20061;-33
2023/07/12 21:18:18;;;;;;;3.67;1.43;;;;;;;22.29;59.87;96601.28;10333160;28;20027;-32
2023/07/12 21:23:19;;;;;;;3.78;1.70;;;;;;;22.29;60.05;96596.19;10331930;28;20287;-33
2023/07/12 21:28:20;;;;;;;6.40;1.40;;;;;;;22.31;59.96;96604.69;10328113;28;20122;-32
2023/07/12 21:33:21;;;;;;;1.50;1.38;;;;;;;22.53;60.07;96622.19;10329899;28;20033;-32
2023/07/12 21:38:23;;;;;;;2.60;1.30;;;;;;;22.62;59.61;96637.31;10326446;28;20400;-33
2023/07/12 21:43:23;;;;;;;1.42;1.20;;;;;;;22.50;60.00;96662.22;10331718;28;20035;-32
2023/07/12 21:48:23;;;;;;;2.83;1.40;;;;;;;22.41;59.93;96668.28;10324711;28;20030;-33
2023/07/12 21:53:24;;;;;;;1.77;1.30;;;;;;;22.35;59.86;96675.19;10331495;28;20042;-32
2023/07/12 21:58:24;;;;;;;1.90;1.30;;;;;;;22.30;59.87;96694.81;10330092;28;20058;-33
2023/07/12 22:03:25;;;;;;;2.03;1.30;;;;;;;22.28;60.22;96697.41;10330306;28;20030;-32
2023/07/12 22:08:37;;;;;;;2.20;1.10;;;;;;;22.26;59.84;96713.59;10331193;28;20027;-33
2023/07/12 22:13:39;;;;;;;3.70;1.33;;;;;;;22.23;59.85;96727.22;10329469;28;20034;-33
2023/07/12 22:18:40;;;;;;;2.30;1.02;;;;;;;22.39;60.41;96735.50;10330591;28;20034;-33
2023/07/12 22:23:41;;;;;;;2.03;1.55;;;;;;;22.59;59.96;96736.91;10329597;28;20030;-33
2023/07/12 22:28:43;;;;;;;1.25;1.05;;;;;;;22.58;59.41;96737.75;10329490;28;20547;-33
2023/07/12 22:33:43;;;;;;;1.55;1.20;;;;;;;22.45;59.92;96733.72;10329778;28;20405;-32
2023/07/12 22:38:48;;;;;;;2.30;1.38;;;;;;;22.36;60.00;96726.19;10329012;28;20026;-32
2023/07/12 22:43:48;;;;;;;1.33;1.15;;;;;;;22.31;59.83;96727.13;10329419;28;20081;-32
2023/07/12 22:48:49;;;;;;;1.07;0.90;;;;;;;22.24;59.85;96728.91;10328702;28;20348;-33
2023/07/12 22:53:49;;;;;;;3.37;1.23;;;;;;;22.26;59.91;96731.44;10329034;28;20412;-31
2023/07/12 22:58:52;;;;;;;1.67;1.40;;;;;;;22.24;59.82;96733.19;10328655;28;20280;-32
2023/07/12 23:03:52;;;;;;;2.20;1.10;;;;;;;22.23;59.43;96718.75;10328008;28;20043;-33
2023/07/12 23:08:53;;;;;;;1.47;1.37;;;;;;;22.48;60.13;96720.09;10328868;28;20385;-33
2023/07/12 23:13:53;;;;;;;1.95;1.20;;;;;;;22.61;59.62;96729.22;10327739;28;20528;-33
2023/07/12 23:18:54;;;;;;;1.17;1.03;;;;;;;22.48;59.63;96726.00;10327575;28;20036;-32
2023/07/12 23:23:54;;;;;;;5.80;1.30;;;;;;;22.38;59.74;96719.34;10327833;28;20104;-33